Latest Coastal Weather Observations for Portland Harbour

IDS60701

Issued at 8:31 pm CST Saturday 25 April 2015 (issued every 10 minutes, with the page automatically refreshed every 10 minutes)

About coastal observations | Map of coastal stations | Coastal observations for SA | Marine services | Other Formats
Station Details ID: 090192 Name: PORTLAND NTC AWS Lat: -38.34 Lon: 141.61 Height: 0.0 m
Data from the previous 72 hours. | See also: Recent months for locations in South Australia
Date/Time
CST
Temp

°C
Wind Pressure Rain
since 9am
mm
Weather Cloud Vis
km
Sea
Height
m
Swell
Dir
 
Speed
knots
Gust
knots
hPa Trend Height
m
Period
s
Dir
25/08:30pm 13.0 S 11 15 1017.4 - - - - - - - - -
25/08:00pm 13.1 S 12 17 1017.2 - - - - - - - - -
25/07:30pm 13.2 S 13 18 1016.9 - - - - - - - - -
25/07:00pm 13.4 S 10 16 1016.5 - - - - - - - - -
25/06:30pm 13.5 S 12 17 1016.3 - - - - - - - - -
25/06:00pm 13.5 S 13 17 1015.8 - - - - - - - - -
25/05:30pm 13.4 S 13 18 1015.2 - - - - - - - - -
25/05:00pm 13.6 S 15 21 1014.7 - - - - - - - - -
25/04:30pm 13.7 S 16 23 1014.4 - - - - - - - - -
25/04:00pm 13.8 S 18 24 1014.0 - - - - - - - - -
25/03:30pm 14.2 S 16 21 1013.6 - - - - - - - - -
25/03:00pm 13.8 SSE 15 24 1013.1 - - - - - - - - -
25/02:30pm 14.4 SSE 16 23 1012.7 - - - - - - - - -
25/02:00pm 14.9 SSE 13 20 1012.3 - - - - - - - - -
25/01:30pm 14.6 SSE 16 23 1012.0 - - - - - - - - -
25/01:00pm 14.6 SSE 14 23 1011.7 - - - - - - - - -
25/12:30pm 15.0 SSE 15 20 1011.4 - - - - - - - - -
25/12:00pm 14.5 SE 14 21 1011.4 - - - - - - - - -
25/11:30am 14.7 SSE 16 22 1011.2 - - - - - - - - -
25/11:00am 14.1 SE 16 23 1011.1 - - - - - - - - -
25/10:30am 13.2 SSE 17 25 1010.8 - - - - - - - - -
25/10:29am 13.4 SSE 16 24 1010.7 - - - - - - - - -
25/10:00am 13.1 S 9 13 1010.5 - - - - - - - - -
25/09:30am 14.1 S 10 16 1010.0 - - - - - - - - -
25/09:00am 13.9 S 7 9 1009.9 - - - - - - - - -
25/08:30am 13.9 S 7 9 1009.5 - - - - - - - - -
25/08:00am 12.5 SW 3 4 1009.1 - - - - - - - - -
25/07:30am 11.7 WSW 4 5 1008.8 - - - - - - - - -
25/07:00am 11.5 WNW 3 4 1008.4 - - - - - - - - -
25/06:30am 11.0 WNW 4 5 1008.0 - - - - - - - - -
25/06:00am 10.5 WNW 5 7 1007.7 - - - - - - - - -
25/05:30am 10.1 W 6 8 1007.4 - - - - - - - - -
25/05:00am 9.9 W 7 8 1007.1 - - - - - - - - -
25/04:30am 9.9 W 6 7 1007.0 - - - - - - - - -
25/04:00am 10.2 W 5 6 1006.9 - - - - - - - - -
25/03:30am 10.3 W 5 6 1006.7 - - - - - - - - -
25/03:00am 10.4 W 4 5 1006.7 - - - - - - - - -
25/02:30am 10.4 WNW 5 7 1006.6 - - - - - - - - -
25/02:00am 10.6 WNW 4 6 1006.6 - - - - - - - - -
25/01:30am 10.4 W 3 5 1006.4 - - - - - - - - -
25/01:00am 10.5 WNW 5 6 1006.3 - - - - - - - - -
25/12:30am 10.6 WNW 3 5 1006.4 - - - - - - - - -
25/12:00am 10.7 NW 4 6 1006.3 - - - - - - - - -
 
Date/Time
CST
Temp

°C
Wind Pressure Rain
since 9am
mm
Weather Cloud Vis
km
Sea
Height
m
Swell
Dir
 
Speed
knots
Gust
knots
hPa Trend Height
m
Period
s
Dir
24/11:30pm 10.8 WNW 3 4 1006.3 - - - - - - - - -
24/11:00pm 11.1 WNW 3 6 1006.2 - - - - - - - - -
24/10:30pm 11.6 NW 5 7 1006.0 - - - - - - - - -
24/10:00pm 11.5 NW 7 9 1006.0 - - - - - - - - -
24/09:30pm 11.5 WNW 6 8 1005.9 - - - - - - - - -
24/09:00pm 11.9 WNW 6 7 1005.9 - - - - - - - - -
24/08:30pm 12.1 WNW 5 7 1005.6 - - - - - - - - -
24/08:00pm 12.2 WNW 7 12 1005.5 - - - - - - - - -
24/07:30pm 12.3 WNW 6 8 1005.4 - - - - - - - - -
24/07:00pm 12.4 NNW 6 10 1005.4 - - - - - - - - -
24/06:30pm 12.7 W 3 5 1004.8 - - - - - - - - -
24/06:00pm 12.8 W 4 7 1004.3 - - - - - - - - -
24/05:30pm 13.1 W 4 6 1004.2 - - - - - - - - -
24/05:00pm 13.1 WNW 6 11 1004.1 - - - - - - - - -
24/04:30pm 12.7 W 12 17 1003.6 - - - - - - - - -
24/04:00pm 12.4 W 17 23 1003.0 - - - - - - - - -
24/03:30pm 15.0 NE 4 23 1003.2 - - - - - - - - -
24/03:00pm 15.7 E 5 7 1002.0 - - - - - - - - -
24/02:30pm 15.6 ESE 10 12 1001.9 - - - - - - - - -
24/02:00pm 16.1 ESE 8 9 1001.8 - - - - - - - - -
24/01:30pm 15.9 E 5 6 1002.1 - - - - - - - - -
24/01:00pm 16.0 NE 5 8 1002.7 - - - - - - - - -
24/12:30pm 16.7 NNW 5 7 1003.1 - - - - - - - - -
24/12:00pm 16.6 NW 5 9 1003.4 - - - - - - - - -
24/11:30am 16.1 NW 5 8 1004.0 - - - - - - - - -
24/11:00am 15.9 W 6 9 1004.3 - - - - - - - - -
24/10:30am 15.3 W 7 12 1004.6 - - - - - - - - -
24/10:00am 14.9 W 7 10 1004.5 - - - - - - - - -
24/09:30am 14.6 W 7 13 1004.7 - - - - - - - - -
24/09:00am 14.4 W 8 12 1005.0 - - - - - - - - -
24/08:30am 14.4 W 5 8 1005.2 - - - - - - - - -
24/08:00am 14.2 WNW 4 6 1005.2 - - - - - - - - -
24/07:30am 14.1 NW 4 6 1005.3 - - - - - - - - -
24/07:00am 14.0 WNW 4 5 1005.2 - - - - - - - - -
24/06:30am 14.0 NW 3 4 1005.2 - - - - - - - - -
24/06:00am 14.2 W 3 4 1005.2 - - - - - - - - -
24/05:30am 14.2 WNW 3 6 1005.4 - - - - - - - - -
24/05:00am 14.4 NW 5 6 1005.5 - - - - - - - - -
24/04:30am 14.3 WNW 4 5 1005.5 - - - - - - - - -
24/04:00am 14.4 WNW 3 4 1005.5 - - - - - - - - -
24/03:30am 14.6 W 2 2 1005.7 - - - - - - - - -
24/03:00am 14.6 WNW 2 3 1006.2 - - - - - - - - -
24/02:30am 15.3 NNW 3 4 1006.6 - - - - - - - - -
24/02:00am 15.1 WSW 1 1 1006.9 - - - - - - - - -
24/01:30am 15.3 CALM 0 1 1007.5 - - - - - - - - -
24/01:00am 15.2 CALM 0 1 1007.9 - - - - - - - - -
24/12:30am 15.4 S 2 3 1008.5 - - - - - - - - -
24/12:00am 15.7 SE 3 4 1008.9 - - - - - - - - -
 
Date/Time
CST
Temp

°C
Wind Pressure Rain
since 9am
mm
Weather Cloud Vis
km
Sea
Height
m
Swell
Dir
 
Speed
knots
Gust
knots
hPa Trend Height
m
Period
s
Dir
23/11:30pm 15.7 ESE 2 3 1009.4 - - - - - - - - -
23/11:00pm 15.7 E 4 5 1009.9 - - - - - - - - -
23/10:30pm 15.8 E 5 6 1010.2 - - - - - - - - -
23/10:00pm 15.9 ESE 4 5 1010.8 - - - - - - - - -
23/09:30pm 15.9 E 5 7 1011.1 - - - - - - - - -
23/09:00pm 15.9 E 8 10 1011.5 - - - - - - - - -
23/08:30pm 15.9 E 7 9 1011.8 - - - - - - - - -
23/08:00pm 15.8 E 8 13 1011.8 - - - - - - - - -
23/07:30pm 15.8 ESE 10 14 1012.0 - - - - - - - - -
23/07:00pm 15.8 ESE 12 16 1012.0 - - - - - - - - -
23/06:30pm 15.9 ESE 12 16 1012.1 - - - - - - - - -
23/06:00pm 15.8 ESE 13 17 1012.3 - - - - - - - - -
23/05:30pm 15.7 ESE 13 18 1012.3 - - - - - - - - -
23/05:00pm 15.7 ESE 13 17 1012.6 - - - - - - - - -
23/04:30pm 15.8 ESE 13 16 1013.2 - - - - - - - - -
23/04:00pm 15.7 ESE 13 16 1013.3 - - - - - - - - -
23/03:30pm 15.7 ESE 12 16 1014.0 - - - - - - - - -
23/03:00pm 15.7 ESE 13 16 1014.4 - - - - - - - - -
23/02:30pm 15.7 ESE 14 16 1014.4 - - - - - - - - -
23/02:00pm 15.7 ESE 14 17 1014.8 - - - - - - - - -
23/01:30pm 15.6 ESE 14 17 1015.0 - - - - - - - - -
23/01:00pm 15.7 ESE 14 17 1015.6 - - - - - - - - -
23/12:30pm 15.8 ESE 13 17 1016.2 - - - - - - - - -
23/12:00pm 15.8 ESE 13 17 1016.7 - - - - - - - - -
23/11:30am 15.8 ESE 14 17 1017.5 - - - - - - - - -
23/11:00am 15.8 ESE 13 18 1018.0 - - - - - - - - -
23/10:30am 15.6 ESE 14 17 1018.4 - - - - - - - - -
23/10:00am 15.6 ESE 15 19 1018.7 - - - - - - - - -
23/09:30am 15.6 ESE 13 18 1019.0 - - - - - - - - -
23/09:00am 15.5 ESE 15 19 1019.2 - - - - - - - - -
23/08:30am 15.4 SE 16 21 1019.2 - - - - - - - - -
23/08:00am 15.4 ESE 15 20 1019.7 - - - - - - - - -
23/07:30am 15.4 ESE 14 18 1020.1 - - - - - - - - -
23/07:00am 15.4 SE 15 19 1020.1 - - - - - - - - -
23/06:30am 15.5 SE 15 19 1020.1 - - - - - - - - -
23/06:00am 15.4 SE 15 20 1020.1 - - - - - - - - -
23/05:30am 15.4 SE 14 18 1020.1 - - - - - - - - -
23/05:00am 15.3 SE 15 19 1020.2 - - - - - - - - -
23/04:30am 15.3 SE 13 17 1020.2 - - - - - - - - -
23/04:00am 15.4 SE 16 19 1020.2 - - - - - - - - -
23/03:30am 15.4 SE 14 18 1020.4 - - - - - - - - -
23/03:00am 15.3 SE 13 17 1020.5 - - - - - - - - -
23/02:30am 15.4 SE 12 16 1020.8 - - - - - - - - -
23/02:00am 15.4 SE 13 16 1021.2 - - - - - - - - -
23/01:30am 15.4 SE 13 17 1021.6 - - - - - - - - -
23/01:00am 15.3 SE 11 16 1021.8 - - - - - - - - -
23/12:30am 15.4 SE 14 18 1021.9 - - - - - - - - -
23/12:00am 15.4 SE 13 17 1022.2 - - - - - - - - -
 
Date/Time
CST
Temp

°C
Wind Pressure Rain
since 9am
mm
Weather Cloud Vis
km
Sea
Height
m
Swell
Dir
 
Speed
knots
Gust
knots
hPa Trend Height
m
Period
s
Dir
22/11:30pm 15.4 SE 12 16 1022.6 - - - - - - - - -
22/11:00pm 15.4 SE 12 15 1023.0 - - - - - - - - -
22/10:30pm 15.5 SE 12 15 1023.3 - - - - - - - - -
22/10:00pm 15.4 SE 11 15 1023.6 - - - - - - - - -
22/09:30pm 15.3 SE 12 16 1023.9 - - - - - - - - -
22/09:00pm 15.3 ESE 14 18 1024.0 - - - - - - - - -
22/08:30pm 15.3 SE 13 17 1024.2 - - - - - - - - -

Other Formats:

Comma delimited format used in spreadsheet applications
http://www.bom.gov.au/fwo/IDS60701/IDS60701.95826.axf

JavaScript Object Notation format (JSON) in row-major order
http://www.bom.gov.au/fwo/IDS60701/IDS60701.95826.json